Time;durP1;ratioP1;P1;durP2;ratioP2;P2;SDS_P1;SDS_P2;PMS_P1;PMS_P2;Temp;Humidity;BMP_temperature;BMP_pressure;BME280_temperature;BME280_humidity;BME280_pressure;Samples;Min_cycle;Max_cycle;Signal;HPM_P1;HPM_P2
2023/02/02 00:01:32;;;;;;;;;;;3.50;99.90;;;;;;6213233;23;20205;-78
2023/02/02 00:03:58;;;;;;;;;;;3.40;99.90;;;;;;6214464;23;19912;-78
2023/02/02 00:06:24;;;;;;;;;;;3.40;99.90;;;;;;6214991;23;19966;-78
2023/02/02 00:08:50;;;;;;;;;;;3.40;99.90;;;;;;6213036;23;19980;-78
2023/02/02 00:11:17;;;;;;;;;;;3.40;99.90;;;;;;6215017;23;19927;-78
2023/02/02 00:13:43;;;;;;;;;;;3.40;99.90;;;;;;6214535;23;19903;-78
2023/02/02 00:16:20;;;;;;;;;;;3.30;99.90;;;;;;6212939;23;19907;-78
2023/02/02 00:18:47;;;;;;;;;;;3.40;99.90;;;;;;6214778;23;19907;-78
2023/02/02 00:21:12;;;;;;;;;;;3.30;99.90;;;;;;6213032;23;19900;-78
2023/02/02 00:23:38;;;;;;;;;;;3.30;99.90;;;;;;6213112;23;20331;-78
2023/02/02 00:26:03;;;;;;;;;;;3.30;99.90;;;;;;6212958;23;20231;-78
2023/02/02 00:28:29;;;;;;;;;;;3.30;99.90;;;;;;6214785;23;19935;-79
2023/02/02 00:30:54;;;;;;;;;;;3.30;99.90;;;;;;6214383;23;19938;-78
2023/02/02 00:33:20;;;;;;;;;;;3.30;99.90;;;;;;6214393;23;19935;-78
2023/02/02 00:35:45;;;;;;;;;;;3.30;99.90;;;;;;6213149;23;19899;-78
2023/02/02 00:38:11;;;;;;;;;;;3.30;99.90;;;;;;6214483;23;20271;-78
2023/02/02 00:40:36;;;;;;;;;;;3.30;99.90;;;;;;6214679;23;20304;-78
2023/02/02 00:43:02;;;;;;;;;;;3.30;99.90;;;;;;6212866;23;19900;-78
2023/02/02 00:45:27;;;;;;;;;;;3.30;99.90;;;;;;6212691;23;19959;-78
2023/02/02 00:47:53;;;;;;;;;;;3.30;99.90;;;;;;6212922;23;19923;-78
2023/02/02 00:50:19;;;;;;;;;;;3.30;99.90;;;;;;6214488;23;19919;-78
2023/02/02 00:52:46;;;;;;;;;;;3.30;99.90;;;;;;6214562;23;20261;-78
2023/02/02 00:55:12;;;;;;;;;;;3.20;99.90;;;;;;6214249;23;19911;-78
2023/02/02 00:57:38;;;;;;;;;;;3.20;99.90;;;;;;6214552;23;19956;-78
2023/02/02 01:00:05;;;;;;;;;;;3.20;99.90;;;;;;6212575;23;20355;-78
2023/02/02 01:02:32;;;;;;;;;;;3.20;99.90;;;;;;6214430;23;19900;-78
2023/02/02 01:04:57;;;;;;;;;;;3.20;99.90;;;;;;6214099;23;19912;-78
2023/02/02 01:07:23;;;;;;;;;;;3.20;99.90;;;;;;6212525;23;19907;-78
2023/02/02 01:09:49;;;;;;;;;;;3.20;99.90;;;;;;6212907;23;19907;-78
2023/02/02 01:12:14;;;;;;;;;;;3.20;99.90;;;;;;6214203;23;19900;-78
2023/02/02 01:14:40;;;;;;;;;;;3.20;99.90;;;;;;6213874;23;19983;-78
2023/02/02 01:17:05;;;;;;;;;;;3.20;99.90;;;;;;6212644;23;20308;-78
2023/02/02 01:19:31;;;;;;;;;;;3.20;99.90;;;;;;6214338;23;19950;-78
2023/02/02 01:21:56;;;;;;;;;;;3.10;99.90;;;;;;6212630;23;19904;-78
2023/02/02 01:24:22;;;;;;;;;;;3.20;99.90;;;;;;6212490;23;19911;-78
2023/02/02 01:26:47;;;;;;;;;;;3.10;99.90;;;;;;6214205;23;20233;-78
2023/02/02 01:29:14;;;;;;;;;;;3.10;99.90;;;;;;6214162;23;19900;-78
2023/02/02 01:31:41;;;;;;;;;;;3.20;99.90;;;;;;6214238;23;19907;-78
2023/02/02 01:34:06;;;;;;;;;;;3.20;99.90;;;;;;6214030;23;19903;-78
2023/02/02 01:36:32;;;;;;;;;;;3.10;99.90;;;;;;6212614;23;19907;-78
2023/02/02 01:38:57;;;;;;;;;;;3.10;99.90;;;;;;6212605;23;19907;-79
2023/02/02 01:41:24;;;;;;;;;;;3.10;99.90;;;;;;6214188;23;19979;-78
2023/02/02 01:43:54;;;;;;;;;;;3.10;99.90;;;;;;6212513;23;19904;-78
2023/02/02 01:46:24;;;;;;;;;;;3.00;99.90;;;;;;6214130;23;19903;-78
2023/02/02 01:48:50;;;;;;;;;;;3.00;99.90;;;;;;6212446;23;20271;-78
2023/02/02 01:51:17;;;;;;;;;;;3.10;99.90;;;;;;6214238;23;19900;-78
2023/02/02 01:53:44;;;;;;;;;;;3.10;99.90;;;;;;6213859;23;20354;-78
2023/02/02 01:56:11;;;;;;;;;;;3.00;99.90;;;;;;6214003;23;19926;-78
2023/02/02 01:58:38;;;;;;;;;;;3.00;99.90;;;;;;6214031;23;19896;-78
2023/02/02 02:01:04;;;;;;;;;;;3.00;99.90;;;;;;6213995;23;20026;-78
2023/02/02 02:03:30;;;;;;;;;;;3.00;99.90;;;;;;6213813;23;19915;-78
2023/02/02 02:05:59;;;;;;;;;;;2.90;99.90;;;;;;6212493;23;19900;-79
2023/02/02 02:08:29;;;;;;;;;;;3.00;99.90;;;;;;6212573;23;19900;-78
2023/02/02 02:10:55;;;;;;;;;;;2.90;99.90;;;;;;6214083;23;19923;-78
2023/02/02 02:16:17;;;;;;;;;;;2.90;99.90;;;;;;6213759;23;19900;-78
2023/02/02 02:16:27;;;;;;;;;;;2.90;99.90;;;;;;6213758;23;19959;-78
2023/02/02 02:19:19;;;;;;;;;;;2.90;99.90;;;;;;6214175;23;19930;-78
2023/02/02 02:27:49;;;;;;;;;;;2.90;99.90;;;;;;6215668;23;20327;-78
2023/02/02 02:30:27;;;;;;;;;;;2.90;99.90;;;;;;6215672;23;20320;-78
2023/02/02 02:32:55;;;;;;;;;;;2.90;99.90;;;;;;6215523;23;19978;-78
2023/02/02 02:35:21;;;;;;;;;;;2.90;99.90;;;;;;6214087;23;19939;-79
2023/02/02 02:37:49;;;;;;;;;;;3.00;99.90;;;;;;6215643;23;19923;-78
2023/02/02 02:40:20;;;;;;;;;;;3.00;99.90;;;;;;6215754;23;19931;-78
2023/02/02 02:42:49;;;;;;;;;;;3.00;99.90;;;;;;6215679;23;20311;-79
2023/02/02 02:45:15;;;;;;;;;;;2.90;99.90;;;;;;6213676;23;19900;-78
2023/02/02 02:47:42;;;;;;;;;;;2.80;99.90;;;;;;6214143;23;19966;-78
2023/02/02 02:50:08;;;;;;;;;;;2.80;99.90;;;;;;6213967;23;19900;-78
2023/02/02 02:52:35;;;;;;;;;;;2.80;99.90;;;;;;6213718;23;19911;-78
2023/02/02 02:55:01;;;;;;;;;;;2.80;99.90;;;;;;6215363;23;19908;-78
2023/02/02 02:57:41;;;;;;;;;;;2.80;99.90;;;;;;6213784;23;19954;-78
2023/02/02 03:00:07;;;;;;;;;;;2.80;99.90;;;;;;6215508;23;19899;-78
2023/02/02 03:02:49;;;;;;;;;;;2.80;99.90;;;;;;6215321;23;19900;-78
2023/02/02 03:05:24;;;;;;;;;;;2.80;99.90;;;;;;6215197;23;19926;-78
2023/02/02 03:08:00;;;;;;;;;;;2.80;99.90;;;;;;6213796;23;20279;-78
2023/02/02 03:10:28;;;;;;;;;;;2.90;99.90;;;;;;6215513;23;19908;-78
2023/02/02 03:12:54;;;;;;;;;;;2.90;99.90;;;;;;6215187;23;19982;-78
2023/02/02 03:15:19;;;;;;;;;;;2.90;99.90;;;;;;6213302;23;19939;-78
2023/02/02 03:17:46;;;;;;;;;;;2.90;99.90;;;;;;6213576;23;20309;-78
2023/02/02 03:20:12;;;;;;;;;;;2.90;99.90;;;;;;6213636;23;19900;-79
2023/02/02 03:22:38;;;;;;;;;;;2.90;99.90;;;;;;6213144;23;19922;-79
2023/02/02 03:25:04;;;;;;;;;;;2.90;99.90;;;;;;6214798;23;19900;-78
2023/02/02 03:27:29;;;;;;;;;;;2.90;99.90;;;;;;6213538;23;19947;-78
2023/02/02 03:29:55;;;;;;;;;;;2.90;99.90;;;;;;6214849;23;19900;-78
2023/02/02 03:32:20;;;;;;;;;;;2.80;99.90;;;;;;6213187;23;19899;-78
2023/02/02 03:34:46;;;;;;;;;;;2.80;99.90;;;;;;6214733;23;19904;-78
2023/02/02 03:37:11;;;;;;;;;;;2.80;99.90;;;;;;6213582;23;19900;-79
2023/02/02 03:39:37;;;;;;;;;;;2.80;99.90;;;;;;6215064;23;19927;-78
2023/02/02 03:42:02;;;;;;;;;;;2.80;99.90;;;;;;6213365;23;20265;-78
2023/02/02 03:44:28;;;;;;;;;;;2.80;99.90;;;;;;6214968;23;20331;-79
2023/02/02 03:46:53;;;;;;;;;;;2.80;99.90;;;;;;6213125;23;20271;-78
2023/02/02 03:49:19;;;;;;;;;;;2.80;99.90;;;;;;6214911;23;19923;-79
2023/02/02 03:51:45;;;;;;;;;;;2.80;99.90;;;;;;6214899;23;19900;-78
2023/02/02 03:54:10;;;;;;;;;;;2.80;99.90;;;;;;6213159;23;19908;-78
2023/02/02 03:56:36;;;;;;;;;;;2.80;99.90;;;;;;6213299;23;19939;-79
2023/02/02 03:59:02;;;;;;;;;;;2.80;99.90;;;;;;6213087;23;19930;-79
2023/02/02 04:01:28;;;;;;;;;;;2.90;99.90;;;;;;6214805;23;19907;-78
2023/02/02 04:03:54;;;;;;;;;;;2.80;99.90;;;;;;6214474;23;19974;-78
2023/02/02 04:06:19;;;;;;;;;;;2.80;99.90;;;;;;6215001;23;19904;-78
2023/02/02 04:08:45;;;;;;;;;;;2.80;99.90;;;;;;6213054;23;19900;-78
2023/02/02 04:11:10;;;;;;;;;;;2.80;99.90;;;;;;6215014;23;19900;-79
2023/02/02 04:13:36;;;;;;;;;;;2.80;99.90;;;;;;6214552;23;19900;-79
2023/02/02 04:16:02;;;;;;;;;;;2.80;99.90;;;;;;6212979;23;20260;-79
2023/02/02 04:18:28;;;;;;;;;;;2.80;99.90;;;;;;6214788;23;19900;-79
2023/02/02 04:21:00;;;;;;;;;;;2.80;99.90;;;;;;6214709;23;19900;-78
2023/02/02 04:23:26;;;;;;;;;;;2.70;99.90;;;;;;6213238;23;20228;-79
2023/02/02 04:25:52;;;;;;;;;;;2.80;99.90;;;;;;6214669;23;19906;-78
2023/02/02 04:28:18;;;;;;;;;;;2.80;99.90;;;;;;6213158;23;19900;-78
2023/02/02 04:30:43;;;;;;;;;;;2.90;99.90;;;;;;6212732;23;19900;-78
2023/02/02 04:33:09;;;;;;;;;;;2.80;99.90;;;;;;6213108;23;20312;-78
2023/02/02 04:35:34;;;;;;;;;;;2.80;99.90;;;;;;6212712;23;19904;-78
2023/02/02 04:38:00;;;;;;;;;;;2.80;99.90;;;;;;6214671;23;20324;-78
2023/02/02 04:40:26;;;;;;;;;;;2.80;99.90;;;;;;6214564;23;19900;-78
2023/02/02 04:42:51;;;;;;;;;;;2.80;99.90;;;;;;6214242;23;20376;-78
2023/02/02 04:45:17;;;;;;;;;;;2.80;99.90;;;;;;6214261;23;19899;-78
2023/02/02 04:47:42;;;;;;;;;;;2.80;99.90;;;;;;6212893;23;19926;-78
2023/02/02 04:50:08;;;;;;;;;;;2.80;99.90;;;;;;6212782;23;19923;-78
2023/02/02 04:52:34;;;;;;;;;;;2.90;99.90;;;;;;6214388;23;19923;-78
2023/02/02 04:55:00;;;;;;;;;;;3.00;99.90;;;;;;6214060;23;19904;-79
2023/02/02 04:57:25;;;;;;;;;;;2.90;99.90;;;;;;6214439;23;19907;-78
2023/02/02 04:59:51;;;;;;;;;;;2.90;99.90;;;;;;6212568;23;19899;-78
2023/02/02 05:02:16;;;;;;;;;;;2.90;99.90;;;;;;6212922;23;19900;-78
2023/02/02 05:04:42;;;;;;;;;;;2.90;99.90;;;;;;6214099;23;19962;-78
2023/02/02 05:07:07;;;;;;;;;;;2.90;99.90;;;;;;6214265;23;19950;-78
2023/02/02 05:09:33;;;;;;;;;;;2.80;99.90;;;;;;6212753;23;20312;-78
2023/02/02 05:11:58;;;;;;;;;;;2.70;99.90;;;;;;6214162;23;20312;-78
2023/02/02 05:14:24;;;;;;;;;;;2.60;99.90;;;;;;6214072;23;19911;-78
2023/02/02 05:16:50;;;;;;;;;;;2.50;99.90;;;;;;6213991;23;20338;-78
2023/02/02 05:19:15;;;;;;;;;;;2.50;99.90;;;;;;6212865;23;20324;-78
2023/02/02 05:21:44;;;;;;;;;;;2.50;99.90;;;;;;6212778;23;19910;-78
2023/02/02 05:24:10;;;;;;;;;;;2.60;99.90;;;;;;6214370;23;19904;-78
2023/02/02 05:26:36;;;;;;;;;;;2.60;99.90;;;;;;6214338;23;19923;-78
2023/02/02 05:29:02;;;;;;;;;;;2.60;99.90;;;;;;6214126;23;19907;-78
2023/02/02 05:31:29;;;;;;;;;;;2.70;99.90;;;;;;6214193;23;20291;-78
2023/02/02 05:33:55;;;;;;;;;;;2.60;99.90;;;;;;6214140;23;20432;-78
2023/02/02 05:36:20;;;;;;;;;;;2.60;99.90;;;;;;6212514;23;19950;-78
2023/02/02 05:38:46;;;;;;;;;;;2.60;99.90;;;;;;6212565;23;20147;-78
2023/02/02 05:41:11;;;;;;;;;;;2.70;99.90;;;;;;6212650;23;19904;-79
2023/02/02 05:43:37;;;;;;;;;;;2.70;99.90;;;;;;6214182;23;20313;-78
2023/02/02 05:46:02;;;;;;;;;;;2.70;99.90;;;;;;6212235;23;20094;-78
2023/02/02 05:48:28;;;;;;;;;;;2.70;99.90;;;;;;6214199;23;20423;-78
2023/02/02 05:51:00;;;;;;;;;;;2.70;99.90;;;;;;6214011;23;19899;-78
2023/02/02 05:53:28;;;;;;;;;;;2.70;99.90;;;;;;6214208;23;19926;-78
2023/02/02 05:55:54;;;;;;;;;;;2.70;99.90;;;;;;6214440;23;19907;-78
2023/02/02 05:58:19;;;;;;;;;;;2.70;99.90;;;;;;6214707;23;19904;-78
2023/02/02 06:00:45;;;;;;;;;;;2.60;99.90;;;;;;6216175;23;19922;-78
2023/02/02 06:03:11;;;;;;;;;;;2.50;99.90;;;;;;6216036;23;20231;-78
2023/02/02 06:05:37;;;;;;;;;;;2.50;99.90;;;;;;6214594;23;19904;-78
2023/02/02 06:08:03;;;;;;;;;;;2.40;99.90;;;;;;6214571;23;20312;-78
2023/02/02 06:10:30;;;;;;;;;;;2.50;99.90;;;;;;6216293;23;19904;-78
2023/02/02 06:12:56;;;;;;;;;;;2.50;99.90;;;;;;6215187;23;20313;-78
2023/02/02 06:15:22;;;;;;;;;;;2.50;99.90;;;;;;6213851;23;19919;-78
2023/02/02 06:17:47;;;;;;;;;;;2.50;99.90;;;;;;6215860;23;19900;-78
2023/02/02 06:20:13;;;;;;;;;;;2.50;99.90;;;;;;6215933;23;19904;-78
2023/02/02 06:22:38;;;;;;;;;;;2.40;99.90;;;;;;6215740;23;19900;-78
2023/02/02 06:25:06;;;;;;;;;;;2.30;99.90;;;;;;6214199;23;19903;-78
2023/02/02 06:27:32;;;;;;;;;;;2.30;99.90;;;;;;6216090;23;20235;-78
2023/02/02 06:29:57;;;;;;;;;;;2.30;99.90;;;;;;6214147;23;19975;-78
2023/02/02 06:32:23;;;;;;;;;;;2.30;99.90;;;;;;6214283;23;19909;-78
2023/02/02 06:34:48;;;;;;;;;;;2.40;99.90;;;;;;6215713;23;20209;-78
2023/02/02 06:37:14;;;;;;;;;;;2.40;99.90;;;;;;6215873;23;19899;-78
2023/02/02 06:39:39;;;;;;;;;;;2.30;99.90;;;;;;6214185;23;19896;-78
2023/02/02 06:42:05;;;;;;;;;;;2.40;99.90;;;;;;6215676;23;19914;-78
2023/02/02 06:44:31;;;;;;;;;;;2.40;99.90;;;;;;6214078;23;19904;-78
2023/02/02 06:46:56;;;;;;;;;;;2.40;99.90;;;;;;6214102;23;19900;-78
2023/02/02 06:49:22;;;;;;;;;;;2.20;99.90;;;;;;6214093;23;19907;-78
2023/02/02 06:51:47;;;;;;;;;;;2.20;99.90;;;;;;6215524;23;19900;-78
2023/02/02 06:54:13;;;;;;;;;;;2.20;99.90;;;;;;6215427;23;19945;-79
2023/02/02 06:56:39;;;;;;;;;;;2.30;99.90;;;;;;6213922;23;20392;-78
2023/02/02 06:59:05;;;;;;;;;;;2.40;99.90;;;;;;6213924;23;19950;-79
2023/02/02 07:01:31;;;;;;;;;;;2.50;99.90;;;;;;6213762;23;20275;-79
2023/02/02 07:03:56;;;;;;;;;;;2.50;99.90;;;;;;6213636;23;19912;-79
2023/02/02 07:06:26;;;;;;;;;;;2.50;99.90;;;;;;6215425;23;19907;-79
2023/02/02 07:08:52;;;;;;;;;;;2.30;99.90;;;;;;6214794;23;19899;-79
2023/02/02 07:11:17;;;;;;;;;;;2.20;99.90;;;;;;6213113;23;19904;-79
2023/02/02 07:13:44;;;;;;;;;;;2.20;99.90;;;;;;6213610;23;19900;-78
2023/02/02 07:16:11;;;;;;;;;;;2.30;99.90;;;;;;6215204;23;19946;-78
2023/02/02 07:18:37;;;;;;;;;;;2.30;99.90;;;;;;6213559;23;20036;-79
2023/02/02 07:21:02;;;;;;;;;;;2.20;99.90;;;;;;6215408;23;19899;-78
2023/02/02 07:23:28;;;;;;;;;;;2.30;99.90;;;;;;6215202;23;19907;-79
2023/02/02 07:26:04;;;;;;;;;;;2.30;99.90;;;;;;6215402;23;19899;-79
2023/02/02 07:28:29;;;;;;;;;;;2.40;99.90;;;;;;6213447;23;19900;-79
2023/02/02 07:30:55;;;;;;;;;;;2.40;99.90;;;;;;6213717;23;19952;-79
2023/02/02 07:33:20;;;;;;;;;;;2.50;99.90;;;;;;6215168;23;19942;-79
2023/02/02 07:35:46;;;;;;;;;;;2.50;99.90;;;;;;6215205;23;19907;-78
2023/02/02 07:38:12;;;;;;;;;;;2.50;99.90;;;;;;6215666;23;19903;-78
2023/02/02 07:40:37;;;;;;;;;;;2.60;99.90;;;;;;6216596;23;19907;-78
2023/02/02 07:43:03;;;;;;;;;;;2.60;99.90;;;;;;6214916;23;19907;-78
2023/02/02 07:45:29;;;;;;;;;;;2.70;99.90;;;;;;6216296;23;19900;-79
2023/02/02 07:47:56;;;;;;;;;;;2.70;99.90;;;;;;6214275;23;19899;-79
2023/02/02 07:50:21;;;;;;;;;;;2.70;99.90;;;;;;6213960;23;19986;-79
2023/02/02 07:52:47;;;;;;;;;;;2.70;99.90;;;;;;6214234;23;19943;-78
2023/02/02 07:55:12;;;;;;;;;;;2.70;99.90;;;;;;6214596;23;19904;-79
2023/02/02 07:57:38;;;;;;;;;;;2.80;99.90;;;;;;6216493;23;19900;-78
2023/02/02 08:00:03;;;;;;;;;;;2.90;99.90;;;;;;6214537;23;20201;-79
2023/02/02 08:02:29;;;;;;;;;;;2.90;99.90;;;;;;6216224;23;19907;-79
2023/02/02 08:04:54;;;;;;;;;;;2.90;99.90;;;;;;6214267;23;19998;-79
2023/02/02 08:07:23;;;;;;;;;;;3.00;99.90;;;;;;6216127;23;19935;-78
2023/02/02 08:09:49;;;;;;;;;;;3.00;99.90;;;;;;6216236;23;19950;-78
2023/02/02 08:12:15;;;;;;;;;;;3.00;99.90;;;;;;6215999;23;19900;-78
2023/02/02 08:14:40;;;;;;;;;;;3.10;99.90;;;;;;6213747;23;20343;-78
2023/02/02 08:17:06;;;;;;;;;;;3.10;99.90;;;;;;6214959;23;20301;-79
2023/02/02 08:19:32;;;;;;;;;;;3.20;99.90;;;;;;6215490;23;19900;-78
2023/02/02 08:21:57;;;;;;;;;;;3.20;99.90;;;;;;6214511;23;19899;-79
2023/02/02 08:24:23;;;;;;;;;;;3.30;99.90;;;;;;6215628;23;19954;-79
2023/02/02 08:26:48;;;;;;;;;;;3.40;99.90;;;;;;6214074;23;19931;-79
2023/02/02 08:29:16;;;;;;;;;;;3.50;99.90;;;;;;6215928;23;19900;-79
2023/02/02 08:31:42;;;;;;;;;;;3.50;99.90;;;;;;6214146;23;20231;-79
2023/02/02 08:34:08;;;;;;;;;;;3.50;99.90;;;;;;6214355;23;20235;-79
2023/02/02 08:36:36;;;;;;;;;;;3.60;99.90;;;;;;6214550;23;19942;-79
2023/02/02 08:39:03;;;;;;;;;;;3.70;99.90;;;;;;6216114;23;19900;-79
2023/02/02 08:41:29;;;;;;;;;;;3.80;99.90;;;;;;6214626;23;20267;-79
2023/02/02 08:43:54;;;;;;;;;;;3.80;99.90;;;;;;6216039;23;19926;-79
2023/02/02 08:46:20;;;;;;;;;;;3.90;99.90;;;;;;6213844;23;19904;-78
2023/02/02 08:48:46;;;;;;;;;;;3.90;99.90;;;;;;6211987;23;19982;-79
2023/02/02 08:51:13;;;;;;;;;;;4.00;99.90;;;;;;6208831;23;19900;-79
2023/02/02 08:53:39;;;;;;;;;;;4.10;99.90;;;;;;6209416;23;19986;-78
2023/02/02 08:56:13;;;;;;;;;;;4.10;99.90;;;;;;6209965;23;19935;-79
2023/02/02 08:58:39;;;;;;;;;;;4.20;99.90;;;;;;6210422;23;19903;-78
2023/02/02 09:01:10;;;;;;;;;;;4.30;99.90;;;;;;6209586;23;19914;-79
2023/02/02 09:03:39;;;;;;;;;;;4.30;99.90;;;;;;6208631;23;20303;-78
2023/02/02 09:06:05;;;;;;;;;;;4.40;99.90;;;;;;6208739;23;19900;-79
2023/02/02 09:08:32;;;;;;;;;;;4.40;99.90;;;;;;6210913;23;20228;-78
2023/02/02 09:11:01;;;;;;;;;;;4.40;99.90;;;;;;6214401;23;19900;-79
2023/02/02 09:13:27;;;;;;;;;;;4.50;99.90;;;;;;6208948;23;19962;-79
2023/02/02 09:15:52;;;;;;;;;;;4.50;99.90;;;;;;6209693;23;19904;-78
2023/02/02 09:18:18;;;;;;;;;;;4.70;99.90;;;;;;6212273;23;19899;-78
2023/02/02 09:20:43;;;;;;;;;;;4.70;99.90;;;;;;6211525;23;19950;-79
2023/02/02 09:23:09;;;;;;;;;;;4.80;99.90;;;;;;6212709;23;19900;-78
2023/02/02 09:25:34;;;;;;;;;;;4.80;99.90;;;;;;6211642;23;19931;-78
2023/02/02 09:28:00;;;;;;;;;;;4.90;99.90;;;;;;6212769;23;19963;-80
2023/02/02 09:30:25;;;;;;;;;;;5.10;99.90;;;;;;6211825;23;20324;-81
2023/02/02 09:32:51;;;;;;;;;;;5.10;99.90;;;;;;6213656;23;19938;-81
2023/02/02 09:35:16;;;;;;;;;;;5.20;99.90;;;;;;6214475;23;19990;-78
2023/02/02 09:37:44;;;;;;;;;;;5.20;99.90;;;;;;6215284;23;19938;-79
2023/02/02 09:40:13;;;;;;;;;;;5.40;99.90;;;;;;6214672;23;20244;-78
2023/02/02 09:42:43;;;;;;;;;;;5.40;99.90;;;;;;6212613;23;19907;-81
2023/02/02 09:45:14;;;;;;;;;;;5.40;99.90;;;;;;6213150;23;19907;-79
2023/02/02 09:47:58;;;;;;;;;;;5.60;99.90;;;;;;6215098;23;19904;-78
2023/02/02 09:50:24;;;;;;;;;;;5.60;99.90;;;;;;6214976;23;19958;-80
2023/02/02 09:52:59;;;;;;;;;;;5.80;99.90;;;;;;6213129;23;19904;-80
2023/02/02 09:55:40;;;;;;;;;;;5.80;99.90;;;;;;6214228;23;19955;-80
2023/02/02 09:58:14;;;;;;;;;;;5.90;99.90;;;;;;6214766;23;19906;-79
2023/02/02 10:00:46;;;;;;;;;;;6.00;99.90;;;;;;6214390;23;19984;-79
2023/02/02 10:03:25;;;;;;;;;;;6.00;99.90;;;;;;6214019;23;19982;-79
2023/02/02 10:05:53;;;;;;;;;;;6.00;99.90;;;;;;6210860;23;19950;-79
2023/02/02 10:08:45;;;;;;;;;;;6.10;99.90;;;;;;6213233;23;19899;-81
2023/02/02 10:11:24;;;;;;;;;;;6.20;99.90;;;;;;6208200;23;19907;-80
2023/02/02 10:13:51;;;;;;;;;;;6.20;99.90;;;;;;6211891;23;19919;-81
2023/02/02 10:16:18;;;;;;;;;;;6.20;99.90;;;;;;6211392;23;19900;-81
2023/02/02 10:18:43;;;;;;;;;;;6.30;99.90;;;;;;6213230;23;19903;-81
2023/02/02 10:21:11;;;;;;;;;;;6.50;99.90;;;;;;6214223;23;19900;-82
2023/02/02 10:23:41;;;;;;;;;;;6.60;99.90;;;;;;6214252;23;19900;-79
2023/02/02 10:26:06;;;;;;;;;;;6.70;99.90;;;;;;6213802;23;19904;-79
2023/02/02 10:28:35;;;;;;;;;;;6.90;99.90;;;;;;6212086;23;20363;-80
2023/02/02 10:31:01;;;;;;;;;;;7.00;99.90;;;;;;6212422;23;19949;-80
2023/02/02 10:33:37;;;;;;;;;;;7.00;99.90;;;;;;6214649;23;20314;-79
2023/02/02 10:36:29;;;;;;;;;;;7.00;99.90;;;;;;6212776;23;19907;-83
2023/02/02 10:38:57;;;;;;;;;;;7.00;99.90;;;;;;6205359;23;19900;-80
2023/02/02 10:41:58;;;;;;;;;;;7.00;99.90;;;;;;6214230;23;19995;-80
2023/02/02 10:44:29;;;;;;;;;;;7.10;99.90;;;;;;6092900;23;19936;-82
2023/02/02 10:46:56;;;;;;;;;;;7.20;99.90;;;;;;6193165;23;19934;-81
2023/02/02 10:49:29;;;;;;;;;;;7.30;99.90;;;;;;6212748;23;19900;-81
2023/02/02 10:52:16;;;;;;;;;;;7.30;99.90;;;;;;6212128;23;19942;-81
2023/02/02 10:54:44;;;;;;;;;;;7.30;99.90;;;;;;6212842;23;20114;-81
2023/02/02 10:57:11;;;;;;;;;;;7.40;99.90;;;;;;6212035;23;19900;-80
2023/02/02 10:59:49;;;;;;;;;;;7.40;99.90;;;;;;6212581;23;19911;-81
2023/02/02 11:02:15;;;;;;;;;;;7.50;99.90;;;;;;6212477;23;19903;-83
2023/02/02 11:07:25;;;;;;;;;;;7.90;99.90;;;;;;6211628;23;19942;-81
2023/02/02 11:09:52;;;;;;;;;;;7.80;99.90;;;;;;6212212;23;19900;-81
2023/02/02 11:12:34;;;;;;;;;;;7.90;99.90;;;;;;6211523;23;20272;-81
2023/02/02 11:15:08;;;;;;;;;;;8.10;99.90;;;;;;6211995;23;19907;-82
2023/02/02 11:17:34;;;;;;;;;;;8.40;99.90;;;;;;6209862;23;20312;-82
2023/02/02 11:19:59;;;;;;;;;;;8.50;99.90;;;;;;6211778;23;19989;-81
2023/02/02 11:22:35;;;;;;;;;;;8.60;99.90;;;;;;6212009;23;20328;-80
2023/02/02 11:25:02;;;;;;;;;;;8.50;99.90;;;;;;6212335;23;20017;-80
2023/02/02 11:27:31;;;;;;;;;;;8.50;99.90;;;;;;6211829;23;19938;-80
2023/02/02 11:30:08;;;;;;;;;;;8.50;99.90;;;;;;6213543;23;19906;-80
2023/02/02 11:32:33;;;;;;;;;;;8.70;99.90;;;;;;6213782;23;19900;-80
2023/02/02 11:35:05;;;;;;;;;;;8.70;99.90;;;;;;6212312;23;20526;-80
2023/02/02 11:37:32;;;;;;;;;;;8.80;99.90;;;;;;6213288;23;19982;-80
2023/02/02 11:40:16;;;;;;;;;;;8.80;99.90;;;;;;6211760;23;20293;-80
2023/02/02 11:42:46;;;;;;;;;;;8.80;99.90;;;;;;6213005;23;19900;-80
2023/02/02 11:45:17;;;;;;;;;;;8.80;99.90;;;;;;6213736;23;19906;-80
2023/02/02 11:47:43;;;;;;;;;;;8.90;99.90;;;;;;6212076;23;19927;-80
2023/02/02 11:50:16;;;;;;;;;;;8.90;99.90;;;;;;6211694;23;19910;-80
2023/02/02 11:52:44;;;;;;;;;;;9.00;99.90;;;;;;6212789;23;19950;-81
2023/02/02 11:55:14;;;;;;;;;;;9.10;99.90;;;;;;6213627;23;19908;-80
2023/02/02 11:57:39;;;;;;;;;;;9.20;99.90;;;;;;6213974;23;19927;-80
2023/02/02 12:00:19;;;;;;;;;;;9.40;99.90;;;;;;6211680;23;19904;-79
2023/02/02 12:02:45;;;;;;;;;;;9.50;99.90;;;;;;6211159;23;19900;-80
2023/02/02 12:05:12;;;;;;;;;;;9.60;99.90;;;;;;6213574;23;19912;-80
2023/02/02 12:07:38;;;;;;;;;;;9.80;99.90;;;;;;6212117;23;19900;-80
2023/02/02 12:10:30;;;;;;;;;;;9.90;99.90;;;;;;6212576;23;19900;-81
2023/02/02 12:13:14;;;;;;;;;;;10.20;99.90;;;;;;6167044;23;19938;-81
2023/02/02 12:15:51;;;;;;;;;;;10.40;99.90;;;;;;6213276;23;19958;-81
2023/02/02 12:18:37;;;;;;;;;;;10.40;99.90;;;;;;6213590;23;20399;-82
2023/02/02 12:21:06;;;;;;;;;;;10.50;99.90;;;;;;6211479;23;19928;-83
2023/02/02 12:23:40;;;;;;;;;;;10.60;99.90;;;;;;6213352;23;20283;-84
2023/02/02 12:26:21;;;;;;;;;;;10.70;99.90;;;;;;6211625;23;19900;-82
2023/02/02 12:29:05;;;;;;;;;;;10.70;99.90;;;;;;6211280;23;20105;-82
2023/02/02 12:31:31;;;;;;;;;;;10.70;99.90;;;;;;6215582;23;20495;-80
2023/02/02 12:34:03;;;;;;;;;;;10.80;99.90;;;;;;6215229;23;19915;-79
2023/02/02 12:36:34;;;;;;;;;;;10.90;99.90;;;;;;6215305;23;19899;-80
2023/02/02 12:39:18;;;;;;;;;;;10.90;99.90;;;;;;6215843;23;19907;-80
2023/02/02 12:42:02;;;;;;;;;;;10.90;99.90;;;;;;6216096;23;20308;-79
2023/02/02 12:44:40;;;;;;;;;;;11.10;99.90;;;;;;6214203;23;20316;-81
2023/02/02 12:47:08;;;;;;;;;;;11.30;99.90;;;;;;6214233;23;19911;-81
2023/02/02 12:49:40;;;;;;;;;;;11.30;99.90;;;;;;6214305;23;19985;-81
2023/02/02 12:52:44;;;;;;;;;;;11.30;99.90;;;;;;6215915;23;19923;-81
2023/02/02 12:55:21;;;;;;;;;;;11.20;99.90;;;;;;6094597;23;19905;-81
2023/02/02 12:58:00;;;;;;;;;;;11.20;99.90;;;;;;6094873;23;19901;-81
2023/02/02 13:00:48;;;;;;;;;;;11.20;99.90;;;;;;6169348;23;19983;-81
2023/02/02 13:03:22;;;;;;;;;;;11.20;99.90;;;;;;6142161;23;20330;-80
2023/02/02 13:05:53;;;;;;;;;;;11.20;99.90;;;;;;6212707;23;20287;-80
2023/02/02 13:08:18;;;;;;;;;;;11.20;99.90;;;;;;6211378;23;19900;-80
2023/02/02 13:10:46;;;;;;;;;;;11.20;99.90;;;;;;6213237;23;19923;-80
2023/02/02 13:13:21;;;;;;;;;;;11.10;99.90;;;;;;6212432;23;19907;-80
2023/02/02 13:15:56;;;;;;;;;;;11.10;99.90;;;;;;6212383;23;19946;-80
2023/02/02 13:18:47;;;;;;;;;;;11.00;99.90;;;;;;6212793;23;19931;-80
2023/02/02 13:21:15;;;;;;;;;;;11.00;99.90;;;;;;6204408;23;19903;-80
2023/02/02 13:23:43;;;;;;;;;;;11.10;99.90;;;;;;6212498;23;19904;-77
2023/02/02 13:26:18;;;;;;;;;;;11.20;99.90;;;;;;6214563;23;19900;-77
2023/02/02 13:29:02;;;;;;;;;;;11.10;99.90;;;;;;6215830;23;19927;-79
2023/02/02 13:31:32;;;;;;;;;;;11.10;99.90;;;;;;6215707;23;20331;-75
2023/02/02 13:34:18;;;;;;;;;;;11.00;99.90;;;;;;6214004;23;19900;-76
2023/02/02 13:36:46;;;;;;;;;;;10.90;99.90;;;;;;6212984;23;19900;-76
2023/02/02 13:39:14;;;;;;;;;;;10.90;99.90;;;;;;6215681;23;19900;-75
2023/02/02 13:41:40;;;;;;;;;;;10.80;99.90;;;;;;6215334;23;19977;-76
2023/02/02 13:44:10;;;;;;;;;;;10.80;99.90;;;;;;6210627;23;19904;-77
2023/02/02 13:46:36;;;;;;;;;;;10.80;99.90;;;;;;6212085;23;19907;-77
2023/02/02 13:49:12;;;;;;;;;;;10.80;99.90;;;;;;6211235;23;19908;-77
2023/02/02 13:51:37;;;;;;;;;;;10.70;99.90;;;;;;6212905;23;20389;-77
2023/02/02 13:54:30;;;;;;;;;;;10.60;99.90;;;;;;6210390;23;19987;-76
2023/02/02 13:56:58;;;;;;;;;;;10.60;99.90;;;;;;6166616;23;19900;-76
2023/02/02 13:59:43;;;;;;;;;;;10.70;99.90;;;;;;6212316;23;19900;-76
2023/02/02 14:02:27;;;;;;;;;;;10.60;99.90;;;;;;6212572;23;19903;-77
2023/02/02 14:04:57;;;;;;;;;;;10.60;99.20;;;;;;6211441;23;19911;-77
2023/02/02 14:07:38;;;;;;;;;;;10.70;99.10;;;;;;6210928;23;20294;-77
2023/02/02 14:10:04;;;;;;;;;;;10.60;99.90;;;;;;6211357;23;19907;-77
2023/02/02 14:12:31;;;;;;;;;;;10.50;99.90;;;;;;6212214;23;19900;-77
2023/02/02 14:17:41;;;;;;;;;;;10.30;99.90;;;;;;6213340;23;19985;-77
2023/02/02 14:20:27;;;;;;;;;;;10.20;99.90;;;;;;6213848;23;19900;-77
2023/02/02 14:22:53;;;;;;;;;;;10.10;99.90;;;;;;6213543;23;19906;-77
2023/02/02 14:25:28;;;;;;;;;;;10.20;99.90;;;;;;6214327;23;19900;-77
2023/02/02 14:27:57;;;;;;;;;;;10.10;99.90;;;;;;6214205;23;19923;-77
2023/02/02 14:30:25;;;;;;;;;;;10.10;99.90;;;;;;6211949;23;19923;-77
2023/02/02 14:32:50;;;;;;;;;;;10.10;99.90;;;;;;6213587;23;19904;-77
2023/02/02 14:35:23;;;;;;;;;;;10.10;99.90;;;;;;6212294;23;20201;-77
2023/02/02 14:37:57;;;;;;;;;;;10.10;99.90;;;;;;6211817;23;19900;-76
2023/02/02 14:40:30;;;;;;;;;;;10.00;99.90;;;;;;6212916;23;19900;-77
2023/02/02 14:46:09;;;;;;;;;;;9.90;99.90;;;;;;6213428;23;20018;-77
2023/02/02 14:48:37;;;;;;;;;;;9.90;99.90;;;;;;6211105;23;19971;-77
2023/02/02 14:51:10;;;;;;;;;;;9.90;99.90;;;;;;6213635;23;19899;-77
2023/02/02 14:53:37;;;;;;;;;;;10.00;99.90;;;;;;6211166;23;19903;-77